sensor_id;sensor_type;location;lat;lon;timestamp;P1;durP1;ratioP1;P2;durP2;ratioP2
22357;SDS011;11346;50.150;8.150;2023-06-19T00:02:27;8.93;;;7.97;;
22357;SDS011;11346;50.150;8.150;2023-06-19T00:04:54;8.53;;;7.63;;
22357;SDS011;11346;50.150;8.150;2023-06-19T00:07:21;9.93;;;7.83;;
22357;SDS011;11346;50.150;8.150;2023-06-19T00:09:48;9.20;;;7.63;;
22357;SDS011;11346;50.150;8.150;2023-06-19T00:12:17;9.83;;;7.97;;
22357;SDS011;11346;50.150;8.150;2023-06-19T00:14:44;9.63;;;7.73;;
22357;SDS011;11346;50.150;8.150;2023-06-19T00:17:11;9.03;;;7.60;;
22357;SDS011;11346;50.150;8.150;2023-06-19T00:19:41;14.40;;;8.33;;
22357;SDS011;11346;50.150;8.150;2023-06-19T00:22:08;12.57;;;7.27;;
22357;SDS011;11346;50.150;8.150;2023-06-19T00:24:35;8.87;;;7.90;;
22357;SDS011;11346;50.150;8.150;2023-06-19T00:27:02;10.53;;;8.37;;
22357;SDS011;11346;50.150;8.150;2023-06-19T00:29:31;10.93;;;8.07;;
22357;SDS011;11346;50.150;8.150;2023-06-19T00:31:58;8.40;;;7.60;;
22357;SDS011;11346;50.150;8.150;2023-06-19T00:34:25;12.37;;;7.90;;
22357;SDS011;11346;50.150;8.150;2023-06-19T00:36:53;11.80;;;8.27;;
22357;SDS011;11346;50.150;8.150;2023-06-19T00:39:21;9.17;;;7.60;;
22357;SDS011;11346;50.150;8.150;2023-06-19T00:41:49;8.47;;;7.57;;
22357;SDS011;11346;50.150;8.150;2023-06-19T00:44:16;9.27;;;8.10;;
22357;SDS011;11346;50.150;8.150;2023-06-19T00:46:44;9.00;;;7.70;;
22357;SDS011;11346;50.150;8.150;2023-06-19T00:49:11;9.40;;;8.03;;
22357;SDS011;11346;50.150;8.150;2023-06-19T00:51:40;10.10;;;8.03;;
22357;SDS011;11346;50.150;8.150;2023-06-19T00:54:07;9.33;;;7.57;;
22357;SDS011;11346;50.150;8.150;2023-06-19T00:56:34;8.17;;;7.37;;
22357;SDS011;11346;50.150;8.150;2023-06-19T00:59:05;8.60;;;7.50;;
22357;SDS011;11346;50.150;8.150;2023-06-19T01:01:33;9.37;;;7.87;;
22357;SDS011;11346;50.150;8.150;2023-06-19T01:04:02;10.50;;;7.60;;
22357;SDS011;11346;50.150;8.150;2023-06-19T01:06:33;8.57;;;7.50;;
22357;SDS011;11346;50.150;8.150;2023-06-19T01:09:04;8.60;;;7.70;;
22357;SDS011;11346;50.150;8.150;2023-06-19T01:11:33;8.17;;;7.27;;
22357;SDS011;11346;50.150;8.150;2023-06-19T01:14:05;9.80;;;7.20;;
22357;SDS011;11346;50.150;8.150;2023-06-19T01:16:33;9.50;;;8.13;;
22357;SDS011;11346;50.150;8.150;2023-06-19T01:19:01;9.33;;;7.83;;
22357;SDS011;11346;50.150;8.150;2023-06-19T01:21:30;9.83;;;8.17;;
22357;SDS011;11346;50.150;8.150;2023-06-19T01:23:59;8.90;;;8.00;;
22357;SDS011;11346;50.150;8.150;2023-06-19T01:26:26;9.47;;;7.87;;
22357;SDS011;11346;50.150;8.150;2023-06-19T01:28:53;10.07;;;8.50;;
22357;SDS011;11346;50.150;8.150;2023-06-19T01:31:23;8.60;;;7.60;;
22357;SDS011;11346;50.150;8.150;2023-06-19T01:33:51;9.80;;;8.07;;
22357;SDS011;11346;50.150;8.150;2023-06-19T01:36:18;10.70;;;7.63;;
22357;SDS011;11346;50.150;8.150;2023-06-19T01:38:46;9.97;;;8.33;;
22357;SDS011;11346;50.150;8.150;2023-06-19T01:41:16;10.77;;;8.17;;
22357;SDS011;11346;50.150;8.150;2023-06-19T01:43:44;9.57;;;8.13;;
22357;SDS011;11346;50.150;8.150;2023-06-19T01:46:11;9.93;;;7.93;;
22357;SDS011;11346;50.150;8.150;2023-06-19T01:48:39;9.20;;;8.30;;
22357;SDS011;11346;50.150;8.150;2023-06-19T01:51:06;11.83;;;8.80;;
22357;SDS011;11346;50.150;8.150;2023-06-19T01:53:33;13.23;;;8.27;;
22357;SDS011;11346;50.150;8.150;2023-06-19T01:56:00;10.13;;;7.97;;
22357;SDS011;11346;50.150;8.150;2023-06-19T01:58:29;9.10;;;7.33;;
22357;SDS011;11346;50.150;8.150;2023-06-19T02:00:56;9.10;;;7.60;;
22357;SDS011;11346;50.150;8.150;2023-06-19T02:03:23;7.93;;;7.13;;
22357;SDS011;11346;50.150;8.150;2023-06-19T02:05:50;13.00;;;7.47;;
22357;SDS011;11346;50.150;8.150;2023-06-19T02:08:17;14.83;;;7.90;;
22357;SDS011;11346;50.150;8.150;2023-06-19T02:10:44;8.57;;;7.13;;
22357;SDS011;11346;50.150;8.150;2023-06-19T02:13:11;10.20;;;7.70;;
22357;SDS011;11346;50.150;8.150;2023-06-19T02:15:39;8.53;;;7.30;;
22357;SDS011;11346;50.150;8.150;2023-06-19T02:18:07;11.07;;;7.90;;
22357;SDS011;11346;50.150;8.150;2023-06-19T02:20:34;10.03;;;7.77;;
22357;SDS011;11346;50.150;8.150;2023-06-19T02:23:01;8.77;;;7.50;;
22357;SDS011;11346;50.150;8.150;2023-06-19T02:25:28;9.70;;;7.67;;
22357;SDS011;11346;50.150;8.150;2023-06-19T02:27:55;8.37;;;7.50;;
22357;SDS011;11346;50.150;8.150;2023-06-19T02:30:22;9.30;;;7.50;;
22357;SDS011;11346;50.150;8.150;2023-06-19T02:32:50;8.80;;;7.60;;
22357;SDS011;11346;50.150;8.150;2023-06-19T02:35:17;7.90;;;6.97;;
22357;SDS011;11346;50.150;8.150;2023-06-19T02:37:44;11.37;;;7.13;;
22357;SDS011;11346;50.150;8.150;2023-06-19T02:40:12;9.47;;;7.43;;
22357;SDS011;11346;50.150;8.150;2023-06-19T02:42:39;9.57;;;7.47;;
22357;SDS011;11346;50.150;8.150;2023-06-19T02:45:07;7.93;;;7.10;;
22357;SDS011;11346;50.150;8.150;2023-06-19T02:47:34;9.47;;;6.83;;
22357;SDS011;11346;50.150;8.150;2023-06-19T02:50:03;8.50;;;6.60;;
22357;SDS011;11346;50.150;8.150;2023-06-19T02:52:30;9.17;;;7.60;;
22357;SDS011;11346;50.150;8.150;2023-06-19T02:54:57;11.43;;;6.60;;
22357;SDS011;11346;50.150;8.150;2023-06-19T02:57:25;10.77;;;6.77;;
22357;SDS011;11346;50.150;8.150;2023-06-19T02:59:52;6.87;;;6.10;;
22357;SDS011;11346;50.150;8.150;2023-06-19T03:02:19;8.20;;;6.27;;
22357;SDS011;11346;50.150;8.150;2023-06-19T03:04:46;9.33;;;6.00;;
22357;SDS011;11346;50.150;8.150;2023-06-19T03:07:15;7.40;;;5.97;;
22357;SDS011;11346;50.150;8.150;2023-06-19T03:09:42;7.17;;;6.47;;
22357;SDS011;11346;50.150;8.150;2023-06-19T03:12:09;7.63;;;6.33;;
22357;SDS011;11346;50.150;8.150;2023-06-19T03:14:36;5.50;;;4.97;;
22357;SDS011;11346;50.150;8.150;2023-06-19T03:17:05;5.77;;;5.27;;
22357;SDS011;11346;50.150;8.150;2023-06-19T03:19:32;5.63;;;5.13;;
22357;SDS011;11346;50.150;8.150;2023-06-19T03:21:59;7.13;;;5.43;;
22357;SDS011;11346;50.150;8.150;2023-06-19T03:24:27;5.63;;;4.97;;
22357;SDS011;11346;50.150;8.150;2023-06-19T03:26:54;8.90;;;5.27;;
22357;SDS011;11346;50.150;8.150;2023-06-19T03:29:21;5.63;;;5.03;;
22357;SDS011;11346;50.150;8.150;2023-06-19T03:31:49;7.30;;;5.17;;
22357;SDS011;11346;50.150;8.150;2023-06-19T03:34:17;5.57;;;4.70;;
22357;SDS011;11346;50.150;8.150;2023-06-19T03:36:44;5.87;;;5.27;;
22357;SDS011;11346;50.150;8.150;2023-06-19T03:39:11;9.13;;;4.93;;
22357;SDS011;11346;50.150;8.150;2023-06-19T03:41:39;5.63;;;4.97;;
22357;SDS011;11346;50.150;8.150;2023-06-19T03:44:06;8.47;;;4.50;;
22357;SDS011;11346;50.150;8.150;2023-06-19T03:46:33;5.63;;;5.13;;
22357;SDS011;11346;50.150;8.150;2023-06-19T03:49:00;5.07;;;4.23;;
22357;SDS011;11346;50.150;8.150;2023-06-19T03:51:29;4.90;;;4.40;;
22357;SDS011;11346;50.150;8.150;2023-06-19T03:53:56;4.87;;;4.00;;
22357;SDS011;11346;50.150;8.150;2023-06-19T03:56:23;4.50;;;4.10;;
22357;SDS011;11346;50.150;8.150;2023-06-19T03:58:52;4.50;;;3.57;;
22357;SDS011;11346;50.150;8.150;2023-06-19T04:01:18;5.13;;;4.40;;
22357;SDS011;11346;50.150;8.150;2023-06-19T04:03:45;4.80;;;4.30;;
22357;SDS011;11346;50.150;8.150;2023-06-19T04:06:12;5.60;;;3.93;;
22357;SDS011;11346;50.150;8.150;2023-06-19T04:08:39;4.83;;;4.10;;
22357;SDS011;11346;50.150;8.150;2023-06-19T04:11:07;6.03;;;4.30;;
22357;SDS011;11346;50.150;8.150;2023-06-19T04:13:33;4.73;;;4.10;;
22357;SDS011;11346;50.150;8.150;2023-06-19T04:16:02;4.60;;;4.20;;
22357;SDS011;11346;50.150;8.150;2023-06-19T04:18:29;4.13;;;3.73;;
22357;SDS011;11346;50.150;8.150;2023-06-19T04:20:56;5.53;;;3.83;;
22357;SDS011;11346;50.150;8.150;2023-06-19T04:23:23;4.30;;;3.90;;
22357;SDS011;11346;50.150;8.150;2023-06-19T04:25:50;8.73;;;4.20;;
22357;SDS011;11346;50.150;8.150;2023-06-19T04:28:17;4.37;;;3.97;;
22357;SDS011;11346;50.150;8.150;2023-06-19T04:30:44;4.17;;;3.77;;
22357;SDS011;11346;50.150;8.150;2023-06-19T04:33:12;5.53;;;3.90;;
22357;SDS011;11346;50.150;8.150;2023-06-19T04:35:39;4.00;;;3.60;;
22357;SDS011;11346;50.150;8.150;2023-06-19T04:38:06;4.67;;;3.73;;
22357;SDS011;11346;50.150;8.150;2023-06-19T04:40:34;4.57;;;3.60;;
22357;SDS011;11346;50.150;8.150;2023-06-19T04:43:01;4.37;;;3.60;;
22357;SDS011;11346;50.150;8.150;2023-06-19T04:45:30;4.63;;;3.50;;
22357;SDS011;11346;50.150;8.150;2023-06-19T04:47:57;4.10;;;3.37;;
22357;SDS011;11346;50.150;8.150;2023-06-19T04:50:29;3.93;;;3.53;;
22357;SDS011;11346;50.150;8.150;2023-06-19T04:52:56;3.70;;;3.40;;
22357;SDS011;11346;50.150;8.150;2023-06-19T04:55:23;3.50;;;3.13;;
22357;SDS011;11346;50.150;8.150;2023-06-19T04:57:51;3.77;;;3.40;;
22357;SDS011;11346;50.150;8.150;2023-06-19T05:00:18;3.20;;;2.90;;
22357;SDS011;11346;50.150;8.150;2023-06-19T05:02:46;3.57;;;3.10;;
22357;SDS011;11346;50.150;8.150;2023-06-19T05:05:13;3.23;;;2.93;;
22357;SDS011;11346;50.150;8.150;2023-06-19T05:07:42;3.30;;;3.00;;
22357;SDS011;11346;50.150;8.150;2023-06-19T05:10:10;3.57;;;3.27;;
22357;SDS011;11346;50.150;8.150;2023-06-19T05:12:37;3.47;;;3.13;;
22357;SDS011;11346;50.150;8.150;2023-06-19T05:15:04;3.47;;;2.70;;
22357;SDS011;11346;50.150;8.150;2023-06-19T05:17:31;3.93;;;3.17;;
22357;SDS011;11346;50.150;8.150;2023-06-19T05:19:58;3.13;;;2.90;;
22357;SDS011;11346;50.150;8.150;2023-06-19T05:22:25;3.37;;;3.07;;
22357;SDS011;11346;50.150;8.150;2023-06-19T05:24:54;3.20;;;2.90;;
22357;SDS011;11346;50.150;8.150;2023-06-19T05:27:21;2.90;;;2.70;;
22357;SDS011;11346;50.150;8.150;2023-06-19T05:29:48;3.43;;;3.10;;
22357;SDS011;11346;50.150;8.150;2023-06-19T05:32:15;3.20;;;2.90;;
22357;SDS011;11346;50.150;8.150;2023-06-19T05:34:42;6.00;;;3.00;;
22357;SDS011;11346;50.150;8.150;2023-06-19T05:37:09;3.47;;;3.17;;
22357;SDS011;11346;50.150;8.150;2023-06-19T05:39:36;4.77;;;3.20;;
22357;SDS011;11346;50.150;8.150;2023-06-19T05:42:05;6.17;;;2.97;;
22357;SDS011;11346;50.150;8.150;2023-06-19T05:44:32;3.50;;;3.20;;
22357;SDS011;11346;50.150;8.150;2023-06-19T05:46:59;3.40;;;3.07;;
22357;SDS011;11346;50.150;8.150;2023-06-19T05:49:26;3.30;;;3.00;;
22357;SDS011;11346;50.150;8.150;2023-06-19T05:51:54;3.50;;;3.20;;
22357;SDS011;11346;50.150;8.150;2023-06-19T05:54:23;3.00;;;2.80;;
22357;SDS011;11346;50.150;8.150;2023-06-19T05:56:51;2.50;;;2.30;;
22357;SDS011;11346;50.150;8.150;2023-06-19T05:59:19;2.87;;;2.53;;
22357;SDS011;11346;50.150;8.150;2023-06-19T06:01:46;2.77;;;2.57;;
22357;SDS011;11346;50.150;8.150;2023-06-19T06:04:15;2.73;;;2.53;;
22357;SDS011;11346;50.150;8.150;2023-06-19T06:06:42;4.13;;;2.77;;
22357;SDS011;11346;50.150;8.150;2023-06-19T06:09:09;2.70;;;2.50;;
22357;SDS011;11346;50.150;8.150;2023-06-19T06:11:37;3.20;;;2.60;;
22357;SDS011;11346;50.150;8.150;2023-06-19T06:14:04;2.90;;;2.70;;
22357;SDS011;11346;50.150;8.150;2023-06-19T06:16:32;3.00;;;2.60;;
22357;SDS011;11346;50.150;8.150;2023-06-19T06:18:59;2.50;;;2.30;;
22357;SDS011;11346;50.150;8.150;2023-06-19T06:21:26;2.90;;;2.60;;
22357;SDS011;11346;50.150;8.150;2023-06-19T06:23:53;2.47;;;2.27;;
22357;SDS011;11346;50.150;8.150;2023-06-19T06:26:20;2.47;;;2.27;;
22357;SDS011;11346;50.150;8.150;2023-06-19T06:28:47;2.97;;;2.60;;
22357;SDS011;11346;50.150;8.150;2023-06-19T06:31:14;2.63;;;2.43;;
22357;SDS011;11346;50.150;8.150;2023-06-19T06:33:43;2.67;;;2.47;;
22357;SDS011;11346;50.150;8.150;2023-06-19T06:36:10;2.77;;;2.57;;
22357;SDS011;11346;50.150;8.150;2023-06-19T06:38:37;6.30;;;2.90;;
22357;SDS011;11346;50.150;8.150;2023-06-19T06:41:04;2.70;;;2.50;;
22357;SDS011;11346;50.150;8.150;2023-06-19T06:43:31;2.60;;;2.40;;
22357;SDS011;11346;50.150;8.150;2023-06-19T06:45:58;5.07;;;2.60;;
22357;SDS011;11346;50.150;8.150;2023-06-19T06:48:25;2.63;;;2.43;;
22357;SDS011;11346;50.150;8.150;2023-06-19T06:50:53;3.17;;;2.87;;
22357;SDS011;11346;50.150;8.150;2023-06-19T06:53:25;3.10;;;2.80;;
22357;SDS011;11346;50.150;8.150;2023-06-19T06:55:53;3.23;;;2.90;;
22357;SDS011;11346;50.150;8.150;2023-06-19T06:58:20;3.30;;;2.73;;
22357;SDS011;11346;50.150;8.150;2023-06-19T07:00:47;4.47;;;3.40;;
22357;SDS011;11346;50.150;8.150;2023-06-19T07:03:16;4.83;;;3.23;;
22357;SDS011;11346;50.150;8.150;2023-06-19T07:05:43;3.60;;;3.30;;
22357;SDS011;11346;50.150;8.150;2023-06-19T07:08:11;3.70;;;3.07;;
22357;SDS011;11346;50.150;8.150;2023-06-19T07:10:38;3.53;;;3.23;;
22357;SDS011;11346;50.150;8.150;2023-06-19T07:13:05;4.17;;;3.30;;
22357;SDS011;11346;50.150;8.150;2023-06-19T07:15:32;3.87;;;3.37;;
22357;SDS011;11346;50.150;8.150;2023-06-19T07:17:59;5.30;;;3.73;;
22357;SDS011;11346;50.150;8.150;2023-06-19T07:20:26;5.20;;;3.20;;
22357;SDS011;11346;50.150;8.150;2023-06-19T07:22:53;3.77;;;3.43;;
22357;SDS011;11346;50.150;8.150;2023-06-19T07:25:22;4.00;;;3.53;;
22357;SDS011;11346;50.150;8.150;2023-06-19T07:27:50;4.40;;;3.53;;
22357;SDS011;11346;50.150;8.150;2023-06-19T07:30:17;4.40;;;4.00;;
22357;SDS011;11346;50.150;8.150;2023-06-19T07:32:44;6.57;;;4.10;;
22357;SDS011;11346;50.150;8.150;2023-06-19T07:35:11;3.80;;;3.50;;
22357;SDS011;11346;50.150;8.150;2023-06-19T07:37:38;7.23;;;3.60;;
22357;SDS011;11346;50.150;8.150;2023-06-19T07:40:06;4.40;;;4.00;;
22357;SDS011;11346;50.150;8.150;2023-06-19T07:42:34;5.50;;;3.60;;
22357;SDS011;11346;50.150;8.150;2023-06-19T07:45:01;6.33;;;3.90;;
22357;SDS011;11346;50.150;8.150;2023-06-19T07:47:28;4.77;;;3.80;;
22357;SDS011;11346;50.150;8.150;2023-06-19T07:49:55;5.43;;;3.87;;
22357;SDS011;11346;50.150;8.150;2023-06-19T07:52:22;3.83;;;3.40;;
22357;SDS011;11346;50.150;8.150;2023-06-19T07:54:50;4.97;;;3.83;;
22357;SDS011;11346;50.150;8.150;2023-06-19T07:57:18;4.60;;;4.17;;
22357;SDS011;11346;50.150;8.150;2023-06-19T07:59:46;4.60;;;3.77;;
22357;SDS011;11346;50.150;8.150;2023-06-19T08:02:14;4.87;;;4.10;;
22357;SDS011;11346;50.150;8.150;2023-06-19T08:04:41;4.77;;;4.07;;
22357;SDS011;11346;50.150;8.150;2023-06-19T08:07:08;5.43;;;4.37;;
22357;SDS011;11346;50.150;8.150;2023-06-19T08:09:35;4.37;;;3.63;;
22357;SDS011;11346;50.150;8.150;2023-06-19T08:12:02;5.53;;;4.00;;
22357;SDS011;11346;50.150;8.150;2023-06-19T08:14:29;4.30;;;3.90;;
22357;SDS011;11346;50.150;8.150;2023-06-19T08:16:57;5.67;;;4.00;;
22357;SDS011;11346;50.150;8.150;2023-06-19T08:19:24;4.67;;;3.77;;
22357;SDS011;11346;50.150;8.150;2023-06-19T08:21:51;4.20;;;3.67;;
22357;SDS011;11346;50.150;8.150;2023-06-19T08:24:18;6.30;;;4.13;;
22357;SDS011;11346;50.150;8.150;2023-06-19T08:26:45;5.40;;;4.50;;
22357;SDS011;11346;50.150;8.150;2023-06-19T08:29:15;4.70;;;4.30;;
22357;SDS011;11346;50.150;8.150;2023-06-19T08:31:43;4.67;;;4.20;;
22357;SDS011;11346;50.150;8.150;2023-06-19T08:34:11;5.63;;;3.90;;
22357;SDS011;11346;50.150;8.150;2023-06-19T08:36:38;5.17;;;3.90;;
22357;SDS011;11346;50.150;8.150;2023-06-19T08:39:05;4.77;;;3.93;;
22357;SDS011;11346;50.150;8.150;2023-06-19T08:41:33;5.60;;;3.70;;
22357;SDS011;11346;50.150;8.150;2023-06-19T08:44:01;5.53;;;3.77;;
22357;SDS011;11346;50.150;8.150;2023-06-19T08:46:29;3.93;;;3.53;;
22357;SDS011;11346;50.150;8.150;2023-06-19T08:48:56;4.17;;;3.63;;
22357;SDS011;11346;50.150;8.150;2023-06-19T08:51:26;4.03;;;3.70;;
22357;SDS011;11346;50.150;8.150;2023-06-19T08:53:54;7.00;;;3.50;;
22357;SDS011;11346;50.150;8.150;2023-06-19T08:56:22;4.47;;;3.53;;
22357;SDS011;11346;50.150;8.150;2023-06-19T08:58:49;4.40;;;3.40;;
22357;SDS011;11346;50.150;8.150;2023-06-19T09:01:16;5.23;;;3.50;;
22357;SDS011;11346;50.150;8.150;2023-06-19T09:03:44;3.70;;;3.40;;
22357;SDS011;11346;50.150;8.150;2023-06-19T09:06:13;3.70;;;3.40;;
22357;SDS011;11346;50.150;8.150;2023-06-19T09:08:42;4.50;;;3.33;;
22357;SDS011;11346;50.150;8.150;2023-06-19T09:11:10;4.07;;;3.60;;
22357;SDS011;11346;50.150;8.150;2023-06-19T09:13:38;3.93;;;3.57;;
22357;SDS011;11346;50.150;8.150;2023-06-19T09:16:05;4.80;;;3.57;;
22357;SDS011;11346;50.150;8.150;2023-06-19T09:18:42;4.13;;;3.73;;
22357;SDS011;11346;50.150;8.150;2023-06-19T09:21:14;4.23;;;3.63;;
22357;SDS011;11346;50.150;8.150;2023-06-19T09:23:44;4.87;;;3.80;;
22357;SDS011;11346;50.150;8.150;2023-06-19T09:26:13;3.50;;;3.20;;
22357;SDS011;11346;50.150;8.150;2023-06-19T09:28:41;4.67;;;3.53;;
22357;SDS011;11346;50.150;8.150;2023-06-19T09:31:08;4.43;;;3.47;;
22357;SDS011;11346;50.150;8.150;2023-06-19T09:33:36;4.40;;;3.80;;
22357;SDS011;11346;50.150;8.150;2023-06-19T09:36:04;4.60;;;3.67;;
22357;SDS011;11346;50.150;8.150;2023-06-19T09:38:32;4.90;;;3.93;;
22357;SDS011;11346;50.150;8.150;2023-06-19T09:41:01;5.10;;;3.50;;
22357;SDS011;11346;50.150;8.150;2023-06-19T09:43:30;4.10;;;3.70;;
22357;SDS011;11346;50.150;8.150;2023-06-19T09:45:59;4.80;;;3.60;;
22357;SDS011;11346;50.150;8.150;2023-06-19T09:48:28;8.77;;;4.03;;
22357;SDS011;11346;50.150;8.150;2023-06-19T09:50:59;4.23;;;3.10;;
22357;SDS011;11346;50.150;8.150;2023-06-19T09:53:27;3.50;;;3.20;;
22357;SDS011;11346;50.150;8.150;2023-06-19T09:55:54;4.73;;;3.60;;
22357;SDS011;11346;50.150;8.150;2023-06-19T09:58:23;3.80;;;3.50;;
22357;SDS011;11346;50.150;8.150;2023-06-19T10:00:51;4.53;;;3.40;;
22357;SDS011;11346;50.150;8.150;2023-06-19T10:03:20;3.97;;;3.20;;
22357;SDS011;11346;50.150;8.150;2023-06-19T10:05:56;4.10;;;3.20;;
22357;SDS011;11346;50.150;8.150;2023-06-19T10:08:27;4.10;;;3.23;;
22357;SDS011;11346;50.150;8.150;2023-06-19T10:10:55;4.40;;;3.43;;
22357;SDS011;11346;50.150;8.150;2023-06-19T10:13:30;5.43;;;3.37;;
22357;SDS011;11346;50.150;8.150;2023-06-19T10:15:57;5.83;;;3.30;;
22357;SDS011;11346;50.150;8.150;2023-06-19T10:18:25;3.70;;;3.27;;
22357;SDS011;11346;50.150;8.150;2023-06-19T10:20:53;4.47;;;3.27;;
22357;SDS011;11346;50.150;8.150;2023-06-19T10:23:20;5.33;;;3.40;;
22357;SDS011;11346;50.150;8.150;2023-06-19T10:25:54;4.40;;;3.33;;
22357;SDS011;11346;50.150;8.150;2023-06-19T10:28:23;4.80;;;3.33;;
22357;SDS011;11346;50.150;8.150;2023-06-19T10:30:55;3.47;;;3.17;;
22357;SDS011;11346;50.150;8.150;2023-06-19T10:33:22;5.80;;;3.30;;
22357;SDS011;11346;50.150;8.150;2023-06-19T10:35:50;3.63;;;3.33;;
22357;SDS011;11346;50.150;8.150;2023-06-19T10:38:17;3.70;;;3.40;;
22357;SDS011;11346;50.150;8.150;2023-06-19T10:40:44;4.50;;;3.17;;
22357;SDS011;11346;50.150;8.150;2023-06-19T10:43:11;3.63;;;3.33;;
22357;SDS011;11346;50.150;8.150;2023-06-19T10:45:38;3.40;;;3.10;;
22357;SDS011;11346;50.150;8.150;2023-06-19T10:48:07;4.10;;;3.40;;
22357;SDS011;11346;50.150;8.150;2023-06-19T10:50:34;3.33;;;3.03;;
22357;SDS011;11346;50.150;8.150;2023-06-19T10:53:01;8.83;;;3.40;;
22357;SDS011;11346;50.150;8.150;2023-06-19T10:55:28;5.13;;;3.20;;
22357;SDS011;11346;50.150;8.150;2023-06-19T10:57:55;6.30;;;3.40;;
22357;SDS011;11346;50.150;8.150;2023-06-19T11:00:23;4.50;;;3.43;;
22357;SDS011;11346;50.150;8.150;2023-06-19T11:02:50;4.93;;;3.57;;
22357;SDS011;11346;50.150;8.150;2023-06-19T11:05:20;4.07;;;3.50;;
22357;SDS011;11346;50.150;8.150;2023-06-19T11:07:51;5.00;;;3.47;;
22357;SDS011;11346;50.150;8.150;2023-06-19T11:10:18;5.33;;;3.30;;
22357;SDS011;11346;50.150;8.150;2023-06-19T11:12:46;3.73;;;3.20;;
22357;SDS011;11346;50.150;8.150;2023-06-19T11:15:13;3.80;;;3.50;;
22357;SDS011;11346;50.150;8.150;2023-06-19T11:17:40;5.97;;;3.43;;
22357;SDS011;11346;50.150;8.150;2023-06-19T11:20:09;7.03;;;3.77;;
22357;SDS011;11346;50.150;8.150;2023-06-19T11:22:38;5.50;;;3.40;;
22357;SDS011;11346;50.150;8.150;2023-06-19T11:25:06;5.23;;;3.30;;
22357;SDS011;11346;50.150;8.150;2023-06-19T11:27:33;5.07;;;3.67;;
22357;SDS011;11346;50.150;8.150;2023-06-19T11:30:00;4.37;;;3.70;;
22357;SDS011;11346;50.150;8.150;2023-06-19T11:32:30;3.90;;;3.30;;
22357;SDS011;11346;50.150;8.150;2023-06-19T11:35:03;4.30;;;3.70;;
22357;SDS011;11346;50.150;8.150;2023-06-19T11:37:31;4.47;;;3.30;;
22357;SDS011;11346;50.150;8.150;2023-06-19T11:40:01;3.73;;;3.40;;
22357;SDS011;11346;50.150;8.150;2023-06-19T11:42:43;5.63;;;3.77;;
22357;SDS011;11346;50.150;8.150;2023-06-19T11:45:10;4.47;;;3.73;;
22357;SDS011;11346;50.150;8.150;2023-06-19T11:47:37;5.97;;;3.90;;
22357;SDS011;11346;50.150;8.150;2023-06-19T11:50:04;5.27;;;3.87;;
22357;SDS011;11346;50.150;8.150;2023-06-19T11:52:31;5.87;;;4.00;;
22357;SDS011;11346;50.150;8.150;2023-06-19T11:54:58;3.77;;;3.47;;
22357;SDS011;11346;50.150;8.150;2023-06-19T11:57:27;4.13;;;3.73;;
22357;SDS011;11346;50.150;8.150;2023-06-19T11:59:54;5.13;;;3.83;;
22357;SDS011;11346;50.150;8.150;2023-06-19T12:02:21;3.43;;;3.13;;
22357;SDS011;11346;50.150;8.150;2023-06-19T12:04:48;4.97;;;3.43;;
22357;SDS011;11346;50.150;8.150;2023-06-19T12:07:15;4.07;;;3.60;;
22357;SDS011;11346;50.150;8.150;2023-06-19T12:09:42;5.30;;;3.63;;
22357;SDS011;11346;50.150;8.150;2023-06-19T12:12:09;5.00;;;3.50;;
22357;SDS011;11346;50.150;8.150;2023-06-19T12:14:38;5.40;;;3.50;;
22357;SDS011;11346;50.150;8.150;2023-06-19T12:17:05;5.70;;;3.67;;
22357;SDS011;11346;50.150;8.150;2023-06-19T12:19:32;5.37;;;3.70;;
22357;SDS011;11346;50.150;8.150;2023-06-19T12:21:59;3.80;;;3.43;;
22357;SDS011;11346;50.150;8.150;2023-06-19T12:24:26;5.53;;;3.73;;
22357;SDS011;11346;50.150;8.150;2023-06-19T12:26:53;4.20;;;3.40;;
22357;SDS011;11346;50.150;8.150;2023-06-19T12:29:20;5.37;;;3.97;;
22357;SDS011;11346;50.150;8.150;2023-06-19T12:31:48;6.37;;;3.57;;
22357;SDS011;11346;50.150;8.150;2023-06-19T12:34:15;6.53;;;3.60;;
22357;SDS011;11346;50.150;8.150;2023-06-19T12:36:42;6.23;;;3.83;;
22357;SDS011;11346;50.150;8.150;2023-06-19T12:39:10;4.23;;;3.83;;
22357;SDS011;11346;50.150;8.150;2023-06-19T12:41:39;5.93;;;3.50;;
22357;SDS011;11346;50.150;8.150;2023-06-19T12:44:06;3.97;;;3.67;;
22357;SDS011;11346;50.150;8.150;2023-06-19T12:46:33;5.50;;;3.83;;
22357;SDS011;11346;50.150;8.150;2023-06-19T12:49:01;5.63;;;3.97;;
22357;SDS011;11346;50.150;8.150;2023-06-19T12:51:28;5.70;;;3.30;;
22357;SDS011;11346;50.150;8.150;2023-06-19T12:53:55;5.73;;;3.43;;
22357;SDS011;11346;50.150;8.150;2023-06-19T12:56:22;3.73;;;3.43;;
22357;SDS011;11346;50.150;8.150;2023-06-19T12:58:49;3.23;;;2.97;;
22357;SDS011;11346;50.150;8.150;2023-06-19T13:01:17;6.80;;;3.50;;
22357;SDS011;11346;50.150;8.150;2023-06-19T13:03:43;4.27;;;3.87;;
22357;SDS011;11346;50.150;8.150;2023-06-19T13:06:12;3.60;;;3.30;;
22357;SDS011;11346;50.150;8.150;2023-06-19T13:08:39;4.83;;;3.60;;
22357;SDS011;11346;50.150;8.150;2023-06-19T13:11:06;4.57;;;3.67;;
22357;SDS011;11346;50.150;8.150;2023-06-19T13:13:33;3.77;;;3.33;;
22357;SDS011;11346;50.150;8.150;2023-06-19T13:16:00;6.20;;;3.90;;
22357;SDS011;11346;50.150;8.150;2023-06-19T13:18:27;3.70;;;3.40;;
22357;SDS011;11346;50.150;8.150;2023-06-19T13:20:54;3.73;;;3.40;;
22357;SDS011;11346;50.150;8.150;2023-06-19T13:23:23;4.23;;;3.83;;
22357;SDS011;11346;50.150;8.150;2023-06-19T13:25:50;5.23;;;3.60;;
22357;SDS011;11346;50.150;8.150;2023-06-19T13:28:17;7.10;;;3.60;;
22357;SDS011;11346;50.150;8.150;2023-06-19T13:30:44;4.60;;;4.17;;
22357;SDS011;11346;50.150;8.150;2023-06-19T13:33:11;4.57;;;3.60;;
22357;SDS011;11346;50.150;8.150;2023-06-19T13:35:38;6.03;;;3.70;;
22357;SDS011;11346;50.150;8.150;2023-06-19T13:38:05;5.37;;;3.80;;
22357;SDS011;11346;50.150;8.150;2023-06-19T13:40:33;4.20;;;3.73;;
22357;SDS011;11346;50.150;8.150;2023-06-19T13:43:00;3.90;;;3.07;;
22357;SDS011;11346;50.150;8.150;2023-06-19T13:45:28;4.33;;;3.50;;
22357;SDS011;11346;50.150;8.150;2023-06-19T13:47:55;5.93;;;3.40;;
22357;SDS011;11346;50.150;8.150;2023-06-19T13:50:23;4.60;;;3.80;;
22357;SDS011;11346;50.150;8.150;2023-06-19T13:52:50;4.23;;;3.30;;
22357;SDS011;11346;50.150;8.150;2023-06-19T13:55:17;5.00;;;3.33;;
22357;SDS011;11346;50.150;8.150;2023-06-19T13:57:45;5.20;;;3.53;;
22357;SDS011;11346;50.150;8.150;2023-06-19T14:00:13;3.97;;;3.27;;
22357;SDS011;11346;50.150;8.150;2023-06-19T14:02:40;3.87;;;3.40;;
22357;SDS011;11346;50.150;8.150;2023-06-19T14:05:08;8.93;;;3.40;;
22357;SDS011;11346;50.150;8.150;2023-06-19T14:07:35;5.93;;;3.57;;
22357;SDS011;11346;50.150;8.150;2023-06-19T14:10:03;4.27;;;3.50;;
22357;SDS011;11346;50.150;8.150;2023-06-19T14:12:30;3.70;;;3.27;;
22357;SDS011;11346;50.150;8.150;2023-06-19T14:14:58;6.13;;;3.53;;
22357;SDS011;11346;50.150;8.150;2023-06-19T14:17:25;6.10;;;3.40;;
22357;SDS011;11346;50.150;8.150;2023-06-19T14:19:53;4.97;;;3.80;;
22357;SDS011;11346;50.150;8.150;2023-06-19T14:22:22;4.90;;;3.57;;
22357;SDS011;11346;50.150;8.150;2023-06-19T14:24:49;4.00;;;3.60;;
22357;SDS011;11346;50.150;8.150;2023-06-19T14:27:18;4.53;;;3.30;;
22357;SDS011;11346;50.150;8.150;2023-06-19T14:29:45;3.27;;;3.00;;
22357;SDS011;11346;50.150;8.150;2023-06-19T14:32:13;3.70;;;3.37;;
22357;SDS011;11346;50.150;8.150;2023-06-19T14:34:40;3.40;;;3.10;;
22357;SDS011;11346;50.150;8.150;2023-06-19T14:37:07;6.30;;;3.40;;
22357;SDS011;11346;50.150;8.150;2023-06-19T14:39:34;3.90;;;3.43;;
22357;SDS011;11346;50.150;8.150;2023-06-19T14:42:01;4.70;;;3.50;;
22357;SDS011;11346;50.150;8.150;2023-06-19T14:44:28;3.87;;;3.30;;
22357;SDS011;11346;50.150;8.150;2023-06-19T14:46:55;5.00;;;3.27;;
22357;SDS011;11346;50.150;8.150;2023-06-19T14:49:24;4.30;;;3.10;;
22357;SDS011;11346;50.150;8.150;2023-06-19T14:51:51;3.50;;;3.20;;